sensor_id;sensor_type;location;lat;lon;timestamp;P1;durP1;ratioP1;P2;durP2;ratioP2
60076;SDS011;45950;45.208;20.374;2023-05-07T00:01:58;5.30;;;4.18;;
60076;SDS011;45950;45.208;20.374;2023-05-07T00:04:24;8.00;;;4.53;;
60076;SDS011;45950;45.208;20.374;2023-05-07T00:06:51;5.65;;;4.25;;
60076;SDS011;45950;45.208;20.374;2023-05-07T00:09:19;6.70;;;4.85;;
60076;SDS011;45950;45.208;20.374;2023-05-07T00:11:46;7.43;;;4.05;;
60076;SDS011;45950;45.208;20.374;2023-05-07T00:14:12;6.30;;;4.88;;
60076;SDS011;45950;45.208;20.374;2023-05-07T00:16:39;5.55;;;4.63;;
60076;SDS011;45950;45.208;20.374;2023-05-07T00:19:05;6.20;;;4.30;;
60076;SDS011;45950;45.208;20.374;2023-05-07T00:21:32;7.72;;;4.20;;
60076;SDS011;45950;45.208;20.374;2023-05-07T00:23:58;5.38;;;4.70;;
60076;SDS011;45950;45.208;20.374;2023-05-07T00:26:26;6.72;;;5.13;;
60076;SDS011;45950;45.208;20.374;2023-05-07T00:28:53;6.32;;;4.35;;
60076;SDS011;45950;45.208;20.374;2023-05-07T00:31:19;7.95;;;5.25;;
60076;SDS011;45950;45.208;20.374;2023-05-07T00:33:46;8.05;;;5.30;;
60076;SDS011;45950;45.208;20.374;2023-05-07T00:36:18;7.55;;;5.15;;
60076;SDS011;45950;45.208;20.374;2023-05-07T00:38:45;6.00;;;4.25;;
60076;SDS011;45950;45.208;20.374;2023-05-07T00:41:12;6.10;;;4.35;;
60076;SDS011;45950;45.208;20.374;2023-05-07T00:43:39;6.57;;;4.88;;
60076;SDS011;45950;45.208;20.374;2023-05-07T00:46:06;7.15;;;4.70;;
60076;SDS011;45950;45.208;20.374;2023-05-07T00:48:33;5.47;;;4.65;;
60076;SDS011;45950;45.208;20.374;2023-05-07T00:50:59;5.53;;;4.60;;
60076;SDS011;45950;45.208;20.374;2023-05-07T00:53:26;6.25;;;4.28;;
60076;SDS011;45950;45.208;20.374;2023-05-07T00:55:52;7.28;;;4.65;;
60076;SDS011;45950;45.208;20.374;2023-05-07T00:58:19;6.47;;;4.50;;
60076;SDS011;45950;45.208;20.374;2023-05-07T01:00:47;7.57;;;4.82;;
60076;SDS011;45950;45.208;20.374;2023-05-07T01:03:14;7.20;;;4.68;;
60076;SDS011;45950;45.208;20.374;2023-05-07T01:05:41;5.32;;;3.92;;
60076;SDS011;45950;45.208;20.374;2023-05-07T01:08:08;7.68;;;4.30;;
60076;SDS011;45950;45.208;20.374;2023-05-07T01:10:35;7.57;;;4.97;;
60076;SDS011;45950;45.208;20.374;2023-05-07T01:13:02;7.13;;;4.80;;
60076;SDS011;45950;45.208;20.374;2023-05-07T01:15:28;5.90;;;4.70;;
60076;SDS011;45950;45.208;20.374;2023-05-07T01:17:56;6.05;;;4.60;;
60076;SDS011;45950;45.208;20.374;2023-05-07T01:20:23;9.15;;;4.50;;
60076;SDS011;45950;45.208;20.374;2023-05-07T01:22:51;10.10;;;4.68;;
60076;SDS011;45950;45.208;20.374;2023-05-07T01:25:18;8.15;;;5.05;;
60076;SDS011;45950;45.208;20.374;2023-05-07T01:27:46;6.70;;;4.68;;
60076;SDS011;45950;45.208;20.374;2023-05-07T01:30:12;6.10;;;4.35;;
60076;SDS011;45950;45.208;20.374;2023-05-07T01:32:40;6.50;;;4.70;;
60076;SDS011;45950;45.208;20.374;2023-05-07T01:35:09;9.65;;;5.20;;
60076;SDS011;45950;45.208;20.374;2023-05-07T01:37:37;6.80;;;4.47;;
60076;SDS011;45950;45.208;20.374;2023-05-07T01:40:06;7.47;;;4.55;;
60076;SDS011;45950;45.208;20.374;2023-05-07T01:42:33;7.35;;;4.28;;
60076;SDS011;45950;45.208;20.374;2023-05-07T01:45:00;12.80;;;5.13;;
60076;SDS011;45950;45.208;20.374;2023-05-07T01:47:26;7.50;;;4.97;;
60076;SDS011;45950;45.208;20.374;2023-05-07T01:49:53;5.53;;;4.40;;
60076;SDS011;45950;45.208;20.374;2023-05-07T01:52:22;5.65;;;4.38;;
60076;SDS011;45950;45.208;20.374;2023-05-07T01:54:49;7.05;;;5.68;;
60076;SDS011;45950;45.208;20.374;2023-05-07T01:57:17;7.10;;;4.70;;
60076;SDS011;45950;45.208;20.374;2023-05-07T01:59:44;6.38;;;4.15;;
60076;SDS011;45950;45.208;20.374;2023-05-07T02:02:10;7.75;;;5.32;;
60076;SDS011;45950;45.208;20.374;2023-05-07T02:04:37;7.30;;;5.43;;
60076;SDS011;45950;45.208;20.374;2023-05-07T02:07:03;6.22;;;4.75;;
60076;SDS011;45950;45.208;20.374;2023-05-07T02:09:30;5.40;;;4.45;;
60076;SDS011;45950;45.208;20.374;2023-05-07T02:11:56;6.65;;;4.97;;
60076;SDS011;45950;45.208;20.374;2023-05-07T02:14:24;6.93;;;4.60;;
60076;SDS011;45950;45.208;20.374;2023-05-07T02:16:51;6.25;;;4.05;;
60076;SDS011;45950;45.208;20.374;2023-05-07T02:19:18;6.85;;;4.88;;
60076;SDS011;45950;45.208;20.374;2023-05-07T02:21:46;5.65;;;5.07;;
60076;SDS011;45950;45.208;20.374;2023-05-07T02:24:12;7.47;;;5.20;;
60076;SDS011;45950;45.208;20.374;2023-05-07T02:26:39;7.05;;;4.40;;
60076;SDS011;45950;45.208;20.374;2023-05-07T02:29:05;6.80;;;5.20;;
60076;SDS011;45950;45.208;20.374;2023-05-07T02:31:33;5.30;;;4.40;;
60076;SDS011;45950;45.208;20.374;2023-05-07T02:34:00;4.82;;;4.00;;
60076;SDS011;45950;45.208;20.374;2023-05-07T02:36:27;5.78;;;4.38;;
60076;SDS011;45950;45.208;20.374;2023-05-07T02:38:53;7.35;;;4.38;;
60076;SDS011;45950;45.208;20.374;2023-05-07T02:41:20;6.50;;;4.65;;
60076;SDS011;45950;45.208;20.374;2023-05-07T02:43:47;5.82;;;4.20;;
60076;SDS011;45950;45.208;20.374;2023-05-07T02:46:23;6.50;;;4.43;;
60076;SDS011;45950;45.208;20.374;2023-05-07T02:48:51;8.25;;;4.47;;
60076;SDS011;45950;45.208;20.374;2023-05-07T02:51:19;6.93;;;5.07;;
60076;SDS011;45950;45.208;20.374;2023-05-07T02:53:46;6.22;;;4.20;;
60076;SDS011;45950;45.208;20.374;2023-05-07T02:56:12;5.75;;;4.35;;
60076;SDS011;45950;45.208;20.374;2023-05-07T02:58:39;5.80;;;4.15;;
60076;SDS011;45950;45.208;20.374;2023-05-07T03:01:05;7.72;;;5.00;;
60076;SDS011;45950;45.208;20.374;2023-05-07T03:03:32;6.50;;;4.90;;
60076;SDS011;45950;45.208;20.374;2023-05-07T03:06:00;6.30;;;5.03;;
60076;SDS011;45950;45.208;20.374;2023-05-07T03:08:26;7.47;;;5.20;;
60076;SDS011;45950;45.208;20.374;2023-05-07T03:10:53;6.32;;;5.22;;
60076;SDS011;45950;45.208;20.374;2023-05-07T03:13:19;5.82;;;4.35;;
60076;SDS011;45950;45.208;20.374;2023-05-07T03:15:46;7.80;;;5.50;;
60076;SDS011;45950;45.208;20.374;2023-05-07T03:18:13;8.35;;;4.97;;
60076;SDS011;45950;45.208;20.374;2023-05-07T03:20:39;7.07;;;5.75;;
60076;SDS011;45950;45.208;20.374;2023-05-07T03:23:07;8.55;;;5.78;;
60076;SDS011;45950;45.208;20.374;2023-05-07T03:25:33;8.73;;;5.78;;
60076;SDS011;45950;45.208;20.374;2023-05-07T03:28:09;8.32;;;5.88;;
60076;SDS011;45950;45.208;20.374;2023-05-07T03:30:36;9.70;;;6.10;;
60076;SDS011;45950;45.208;20.374;2023-05-07T03:33:02;6.38;;;5.20;;
60076;SDS011;45950;45.208;20.374;2023-05-07T03:35:29;5.78;;;5.13;;
60076;SDS011;45950;45.208;20.374;2023-05-07T03:37:56;9.95;;;6.15;;
60076;SDS011;45950;45.208;20.374;2023-05-07T03:40:24;6.47;;;5.57;;
60076;SDS011;45950;45.208;20.374;2023-05-07T03:42:50;7.68;;;5.05;;
60076;SDS011;45950;45.208;20.374;2023-05-07T03:45:17;8.18;;;5.95;;
60076;SDS011;45950;45.208;20.374;2023-05-07T03:47:44;8.70;;;5.78;;
60076;SDS011;45950;45.208;20.374;2023-05-07T03:50:11;8.95;;;6.00;;
60076;SDS011;45950;45.208;20.374;2023-05-07T03:52:38;12.10;;;5.97;;
60076;SDS011;45950;45.208;20.374;2023-05-07T03:55:05;8.05;;;6.15;;
60076;SDS011;45950;45.208;20.374;2023-05-07T03:57:39;8.85;;;5.95;;
60076;SDS011;45950;45.208;20.374;2023-05-07T04:00:05;8.93;;;5.95;;
60076;SDS011;45950;45.208;20.374;2023-05-07T04:02:32;8.43;;;6.30;;
60076;SDS011;45950;45.208;20.374;2023-05-07T04:05:00;8.48;;;6.40;;
60076;SDS011;45950;45.208;20.374;2023-05-07T04:07:27;9.85;;;7.18;;
60076;SDS011;45950;45.208;20.374;2023-05-07T04:09:53;8.15;;;5.60;;
60076;SDS011;45950;45.208;20.374;2023-05-07T04:12:20;8.32;;;5.97;;
60076;SDS011;45950;45.208;20.374;2023-05-07T04:14:48;7.97;;;5.65;;
60076;SDS011;45950;45.208;20.374;2023-05-07T04:17:14;8.43;;;6.18;;
60076;SDS011;45950;45.208;20.374;2023-05-07T04:19:41;9.45;;;6.72;;
60076;SDS011;45950;45.208;20.374;2023-05-07T04:22:10;9.13;;;6.20;;
60076;SDS011;45950;45.208;20.374;2023-05-07T04:24:36;8.68;;;6.20;;
60076;SDS011;45950;45.208;20.374;2023-05-07T04:27:03;10.38;;;6.80;;
60076;SDS011;45950;45.208;20.374;2023-05-07T04:29:31;12.35;;;8.25;;
60076;SDS011;45950;45.208;20.374;2023-05-07T04:31:59;11.57;;;9.05;;
60076;SDS011;45950;45.208;20.374;2023-05-07T04:34:26;10.35;;;7.90;;
60076;SDS011;45950;45.208;20.374;2023-05-07T04:36:52;9.77;;;7.35;;
60076;SDS011;45950;45.208;20.374;2023-05-07T04:39:19;9.07;;;7.38;;
60076;SDS011;45950;45.208;20.374;2023-05-07T04:41:45;9.38;;;7.00;;
60076;SDS011;45950;45.208;20.374;2023-05-07T04:44:12;8.15;;;6.05;;
60076;SDS011;45950;45.208;20.374;2023-05-07T04:46:38;8.57;;;6.88;;
60076;SDS011;45950;45.208;20.374;2023-05-07T04:49:06;7.28;;;6.03;;
60076;SDS011;45950;45.208;20.374;2023-05-07T04:51:33;8.63;;;5.80;;
60076;SDS011;45950;45.208;20.374;2023-05-07T04:53:59;10.57;;;7.07;;
60076;SDS011;45950;45.208;20.374;2023-05-07T04:56:27;9.10;;;5.93;;
60076;SDS011;45950;45.208;20.374;2023-05-07T04:58:53;7.72;;;6.38;;
60076;SDS011;45950;45.208;20.374;2023-05-07T05:01:20;7.10;;;6.10;;
60076;SDS011;45950;45.208;20.374;2023-05-07T05:03:46;11.38;;;6.70;;
60076;SDS011;45950;45.208;20.374;2023-05-07T05:06:14;12.50;;;6.40;;
60076;SDS011;45950;45.208;20.374;2023-05-07T05:08:41;8.75;;;5.75;;
60076;SDS011;45950;45.208;20.374;2023-05-07T05:11:07;10.60;;;6.28;;
60076;SDS011;45950;45.208;20.374;2023-05-07T05:13:34;9.63;;;6.35;;
60076;SDS011;45950;45.208;20.374;2023-05-07T05:16:01;8.65;;;6.50;;
60076;SDS011;45950;45.208;20.374;2023-05-07T05:18:27;8.57;;;6.47;;
60076;SDS011;45950;45.208;20.374;2023-05-07T05:20:54;7.63;;;5.53;;
60076;SDS011;45950;45.208;20.374;2023-05-07T05:23:22;9.30;;;6.43;;
60076;SDS011;45950;45.208;20.374;2023-05-07T05:25:49;7.75;;;5.32;;
60076;SDS011;45950;45.208;20.374;2023-05-07T05:52:44;7.38;;;5.78;;
60076;SDS011;45950;45.208;20.374;2023-05-07T05:55:11;10.57;;;6.60;;
60076;SDS011;45950;45.208;20.374;2023-05-07T05:57:38;11.98;;;9.27;;
60076;SDS011;45950;45.208;20.374;2023-05-07T06:00:05;8.82;;;6.72;;
60076;SDS011;45950;45.208;20.374;2023-05-07T06:02:31;7.78;;;5.88;;
60076;SDS011;45950;45.208;20.374;2023-05-07T06:04:58;7.55;;;5.88;;
60076;SDS011;45950;45.208;20.374;2023-05-07T06:07:25;6.97;;;5.68;;
60076;SDS011;45950;45.208;20.374;2023-05-07T06:09:53;10.18;;;6.75;;
60076;SDS011;45950;45.208;20.374;2023-05-07T06:12:20;10.52;;;6.13;;
60076;SDS011;45950;45.208;20.374;2023-05-07T06:14:47;7.38;;;5.75;;
60076;SDS011;45950;45.208;20.374;2023-05-07T06:17:13;7.57;;;5.32;;
60076;SDS011;45950;45.208;20.374;2023-05-07T06:19:40;7.03;;;5.50;;
60076;SDS011;45950;45.208;20.374;2023-05-07T06:22:06;7.20;;;5.43;;
60076;SDS011;45950;45.208;20.374;2023-05-07T06:24:33;6.97;;;4.70;;
60076;SDS011;45950;45.208;20.374;2023-05-07T06:27:01;7.43;;;4.95;;
60076;SDS011;45950;45.208;20.374;2023-05-07T06:29:28;6.28;;;4.82;;
60076;SDS011;45950;45.208;20.374;2023-05-07T06:31:56;5.38;;;4.65;;
60076;SDS011;45950;45.208;20.374;2023-05-07T06:34:23;8.40;;;5.45;;
60076;SDS011;45950;45.208;20.374;2023-05-07T06:36:49;8.20;;;4.80;;
60076;SDS011;45950;45.208;20.374;2023-05-07T06:39:16;7.43;;;5.65;;
60076;SDS011;45950;45.208;20.374;2023-05-07T06:41:42;9.73;;;4.78;;
60076;SDS011;45950;45.208;20.374;2023-05-07T06:44:12;9.50;;;4.82;;
60076;SDS011;45950;45.208;20.374;2023-05-07T06:46:40;6.55;;;4.30;;
60076;SDS011;45950;45.208;20.374;2023-05-07T06:49:07;7.13;;;4.82;;
60076;SDS011;45950;45.208;20.374;2023-05-07T06:51:33;5.72;;;4.28;;
60076;SDS011;45950;45.208;20.374;2023-05-07T06:54:00;6.90;;;4.75;;
60076;SDS011;45950;45.208;20.374;2023-05-07T06:56:26;7.97;;;4.82;;
60076;SDS011;45950;45.208;20.374;2023-05-07T06:58:53;5.68;;;4.30;;
60076;SDS011;45950;45.208;20.374;2023-05-07T07:01:21;5.82;;;4.75;;
60076;SDS011;45950;45.208;20.374;2023-05-07T07:03:48;8.57;;;4.75;;
60076;SDS011;45950;45.208;20.374;2023-05-07T07:06:14;7.10;;;4.28;;
60076;SDS011;45950;45.208;20.374;2023-05-07T07:08:41;6.03;;;4.28;;
60076;SDS011;45950;45.208;20.374;2023-05-07T07:11:07;5.47;;;4.55;;
60076;SDS011;45950;45.208;20.374;2023-05-07T07:13:34;7.57;;;4.55;;
60076;SDS011;45950;45.208;20.374;2023-05-07T07:16:01;5.53;;;4.22;;
60076;SDS011;45950;45.208;20.374;2023-05-07T07:18:29;6.68;;;4.68;;
60076;SDS011;45950;45.208;20.374;2023-05-07T07:20:56;7.55;;;4.80;;
60076;SDS011;45950;45.208;20.374;2023-05-07T07:23:22;5.82;;;4.35;;
60076;SDS011;45950;45.208;20.374;2023-05-07T07:25:49;6.68;;;4.00;;
60076;SDS011;45950;45.208;20.374;2023-05-07T07:28:15;5.53;;;3.95;;
60076;SDS011;45950;45.208;20.374;2023-05-07T07:30:42;7.15;;;4.75;;
60076;SDS011;45950;45.208;20.374;2023-05-07T07:33:09;4.90;;;3.80;;
60076;SDS011;45950;45.208;20.374;2023-05-07T07:35:37;6.78;;;3.88;;
60076;SDS011;45950;45.208;20.374;2023-05-07T07:38:03;11.07;;;4.50;;
60076;SDS011;45950;45.208;20.374;2023-05-07T07:40:30;6.47;;;3.75;;
60076;SDS011;45950;45.208;20.374;2023-05-07T07:42:56;6.63;;;4.22;;
60076;SDS011;45950;45.208;20.374;2023-05-07T07:45:24;5.68;;;4.18;;
60076;SDS011;45950;45.208;20.374;2023-05-07T07:47:51;6.38;;;3.50;;
60076;SDS011;45950;45.208;20.374;2023-05-07T07:50:18;6.13;;;3.97;;
60076;SDS011;45950;45.208;20.374;2023-05-07T07:52:46;6.10;;;3.80;;
60076;SDS011;45950;45.208;20.374;2023-05-07T07:55:12;5.78;;;4.10;;
60076;SDS011;45950;45.208;20.374;2023-05-07T07:57:43;5.30;;;3.50;;
60076;SDS011;45950;45.208;20.374;2023-05-07T08:00:10;7.00;;;3.90;;
60076;SDS011;45950;45.208;20.374;2023-05-07T08:02:36;5.22;;;3.60;;
60076;SDS011;45950;45.208;20.374;2023-05-07T08:05:03;5.03;;;3.40;;
60076;SDS011;45950;45.208;20.374;2023-05-07T08:07:30;6.03;;;3.97;;
60076;SDS011;45950;45.208;20.374;2023-05-07T08:09:58;6.30;;;3.92;;
60076;SDS011;45950;45.208;20.374;2023-05-07T08:12:24;5.40;;;3.97;;
60076;SDS011;45950;45.208;20.374;2023-05-07T08:14:51;6.65;;;3.58;;
60076;SDS011;45950;45.208;20.374;2023-05-07T08:17:17;5.65;;;3.58;;
60076;SDS011;45950;45.208;20.374;2023-05-07T08:19:44;6.75;;;3.95;;
60076;SDS011;45950;45.208;20.374;2023-05-07T08:22:10;4.47;;;3.40;;
60076;SDS011;45950;45.208;20.374;2023-05-07T08:24:37;4.35;;;3.35;;
60076;SDS011;45950;45.208;20.374;2023-05-07T08:27:05;7.40;;;3.78;;
60076;SDS011;45950;45.208;20.374;2023-05-07T08:29:32;5.93;;;3.42;;
60076;SDS011;45950;45.208;20.374;2023-05-07T08:31:58;7.43;;;4.13;;
60076;SDS011;45950;45.208;20.374;2023-05-07T08:34:25;5.28;;;3.25;;
60076;SDS011;45950;45.208;20.374;2023-05-07T08:36:51;5.07;;;3.80;;
60076;SDS011;45950;45.208;20.374;2023-05-07T08:39:18;6.95;;;3.92;;
60076;SDS011;45950;45.208;20.374;2023-05-07T08:41:45;4.90;;;2.88;;
60076;SDS011;45950;45.208;20.374;2023-05-07T08:44:14;6.47;;;4.05;;
60076;SDS011;45950;45.208;20.374;2023-05-07T08:46:43;7.00;;;3.70;;
60076;SDS011;45950;45.208;20.374;2023-05-07T08:49:14;5.53;;;3.85;;
60076;SDS011;45950;45.208;20.374;2023-05-07T08:51:41;5.70;;;3.58;;
60076;SDS011;45950;45.208;20.374;2023-05-07T08:54:07;6.63;;;3.50;;
60076;SDS011;45950;45.208;20.374;2023-05-07T08:56:35;5.70;;;3.85;;
60076;SDS011;45950;45.208;20.374;2023-05-07T08:59:01;5.55;;;3.50;;
60076;SDS011;45950;45.208;20.374;2023-05-07T09:01:30;5.28;;;3.60;;
60076;SDS011;45950;45.208;20.374;2023-05-07T09:03:58;5.28;;;3.67;;
60076;SDS011;45950;45.208;20.374;2023-05-07T09:06:25;5.85;;;3.65;;
60076;SDS011;45950;45.208;20.374;2023-05-07T09:08:52;3.50;;;2.92;;
60076;SDS011;45950;45.208;20.374;2023-05-07T09:11:21;6.47;;;3.53;;
60076;SDS011;45950;45.208;20.374;2023-05-07T09:13:48;5.90;;;4.30;;
60076;SDS011;45950;45.208;20.374;2023-05-07T09:16:16;5.38;;;3.28;;
60076;SDS011;45950;45.208;20.374;2023-05-07T09:18:44;3.70;;;3.40;;
60076;SDS011;45950;45.208;20.374;2023-05-07T09:21:12;4.57;;;3.53;;
60076;SDS011;45950;45.208;20.374;2023-05-07T09:23:41;6.47;;;3.38;;
60076;SDS011;45950;45.208;20.374;2023-05-07T09:26:08;4.45;;;3.15;;
60076;SDS011;45950;45.208;20.374;2023-05-07T09:28:40;6.18;;;4.25;;
60076;SDS011;45950;45.208;20.374;2023-05-07T09:31:07;4.82;;;2.88;;
60076;SDS011;45950;45.208;20.374;2023-05-07T09:33:34;4.28;;;3.50;;
60076;SDS011;45950;45.208;20.374;2023-05-07T09:36:03;10.40;;;5.35;;
60076;SDS011;45950;45.208;20.374;2023-05-07T09:38:30;5.43;;;3.30;;
60076;SDS011;45950;45.208;20.374;2023-05-07T09:41:04;5.43;;;3.55;;
60076;SDS011;45950;45.208;20.374;2023-05-07T09:43:31;5.38;;;3.15;;
60076;SDS011;45950;45.208;20.374;2023-05-07T09:45:58;7.07;;;3.83;;
60076;SDS011;45950;45.208;20.374;2023-05-07T09:48:25;5.20;;;2.63;;
60076;SDS011;45950;45.208;20.374;2023-05-07T09:50:52;4.25;;;2.63;;
60076;SDS011;45950;45.208;20.374;2023-05-07T09:53:23;6.35;;;3.42;;
60076;SDS011;45950;45.208;20.374;2023-05-07T09:55:49;5.30;;;3.83;;
60076;SDS011;45950;45.208;20.374;2023-05-07T09:58:17;3.67;;;2.90;;
60076;SDS011;45950;45.208;20.374;2023-05-07T10:00:45;4.55;;;3.33;;
60076;SDS011;45950;45.208;20.374;2023-05-07T10:03:11;4.88;;;3.25;;
60076;SDS011;45950;45.208;20.374;2023-05-07T10:05:39;5.38;;;3.10;;
60076;SDS011;45950;45.208;20.374;2023-05-07T10:08:13;6.35;;;3.75;;
60076;SDS011;45950;45.208;20.374;2023-05-07T10:10:43;4.50;;;3.25;;
60076;SDS011;45950;45.208;20.374;2023-05-07T10:13:10;4.20;;;3.33;;
60076;SDS011;45950;45.208;20.374;2023-05-07T10:15:37;4.55;;;3.35;;
60076;SDS011;45950;45.208;20.374;2023-05-07T10:18:04;4.25;;;3.08;;
60076;SDS011;45950;45.208;20.374;2023-05-07T10:20:32;5.13;;;3.63;;
60076;SDS011;45950;45.208;20.374;2023-05-07T10:22:59;7.65;;;3.25;;
60076;SDS011;45950;45.208;20.374;2023-05-07T10:25:30;4.07;;;2.45;;
60076;SDS011;45950;45.208;20.374;2023-05-07T10:27:59;10.23;;;5.47;;
60076;SDS011;45950;45.208;20.374;2023-05-07T10:30:30;6.63;;;4.40;;
60076;SDS011;45950;45.208;20.374;2023-05-07T10:32:59;4.65;;;3.70;;
60076;SDS011;45950;45.208;20.374;2023-05-07T10:35:31;4.68;;;3.20;;
60076;SDS011;45950;45.208;20.374;2023-05-07T10:37:57;11.05;;;6.13;;
60076;SDS011;45950;45.208;20.374;2023-05-07T10:40:27;6.40;;;3.83;;
60076;SDS011;45950;45.208;20.374;2023-05-07T10:42:55;8.65;;;5.80;;
60076;SDS011;45950;45.208;20.374;2023-05-07T10:45:25;6.05;;;3.38;;
60076;SDS011;45950;45.208;20.374;2023-05-07T10:48:10;4.13;;;3.10;;
60076;SDS011;45950;45.208;20.374;2023-05-07T10:50:37;5.38;;;3.97;;
60076;SDS011;45950;45.208;20.374;2023-05-07T10:58:39;5.05;;;2.95;;
60076;SDS011;45950;45.208;20.374;2023-05-07T11:01:07;3.50;;;2.92;;
60076;SDS011;45950;45.208;20.374;2023-05-07T11:03:33;5.28;;;3.15;;
60076;SDS011;45950;45.208;20.374;2023-05-07T11:06:09;4.53;;;2.83;;
60076;SDS011;45950;45.208;20.374;2023-05-07T11:08:52;4.18;;;2.90;;
60076;SDS011;45950;45.208;20.374;2023-05-07T11:11:19;5.57;;;4.13;;
60076;SDS011;45950;45.208;20.374;2023-05-07T11:13:46;3.35;;;2.78;;
60076;SDS011;45950;45.208;20.374;2023-05-07T11:16:20;4.10;;;2.85;;
60076;SDS011;45950;45.208;20.374;2023-05-07T11:18:48;3.78;;;2.95;;
60076;SDS011;45950;45.208;20.374;2023-05-07T11:24:00;4.13;;;2.70;;
60076;SDS011;45950;45.208;20.374;2023-05-07T11:26:28;3.92;;;2.60;;
60076;SDS011;45950;45.208;20.374;2023-05-07T11:28:55;3.85;;;2.80;;
60076;SDS011;45950;45.208;20.374;2023-05-07T11:31:28;5.50;;;3.03;;
60076;SDS011;45950;45.208;20.374;2023-05-07T11:33:55;6.50;;;2.80;;
60076;SDS011;45950;45.208;20.374;2023-05-07T11:36:22;3.53;;;2.38;;
60076;SDS011;45950;45.208;20.374;2023-05-07T11:38:49;5.88;;;3.00;;
60076;SDS011;45950;45.208;20.374;2023-05-07T11:41:16;3.97;;;2.28;;
60076;SDS011;45950;45.208;20.374;2023-05-07T11:43:54;3.28;;;2.47;;
60076;SDS011;45950;45.208;20.374;2023-05-07T11:46:21;5.18;;;2.85;;
60076;SDS011;45950;45.208;20.374;2023-05-07T11:48:50;4.65;;;2.75;;
60076;SDS011;45950;45.208;20.374;2023-05-07T11:51:20;6.50;;;2.80;;
60076;SDS011;45950;45.208;20.374;2023-05-07T11:53:47;3.50;;;2.40;;
60076;SDS011;45950;45.208;20.374;2023-05-07T11:56:14;3.58;;;2.58;;
60076;SDS011;45950;45.208;20.374;2023-05-07T11:58:41;3.95;;;2.65;;
60076;SDS011;45950;45.208;20.374;2023-05-07T12:01:10;2.90;;;2.28;;
60076;SDS011;45950;45.208;20.374;2023-05-07T12:03:39;4.70;;;2.50;;
60076;SDS011;45950;45.208;20.374;2023-05-07T12:06:08;3.50;;;2.55;;
60076;SDS011;45950;45.208;20.374;2023-05-07T12:08:36;3.55;;;2.45;;
60076;SDS011;45950;45.208;20.374;2023-05-07T12:11:02;5.03;;;2.20;;
60076;SDS011;45950;45.208;20.374;2023-05-07T12:13:29;4.80;;;2.78;;
60076;SDS011;45950;45.208;20.374;2023-05-07T12:15:56;5.10;;;2.72;;
60076;SDS011;45950;45.208;20.374;2023-05-07T12:18:22;3.20;;;2.30;;
60076;SDS011;45950;45.208;20.374;2023-05-07T12:20:50;3.85;;;2.75;;
60076;SDS011;45950;45.208;20.374;2023-05-07T12:23:18;3.30;;;2.13;;
60076;SDS011;45950;45.208;20.374;2023-05-07T12:25:44;5.20;;;2.65;;
60076;SDS011;45950;45.208;20.374;2023-05-07T12:28:13;7.30;;;4.38;;
60076;SDS011;45950;45.208;20.374;2023-05-07T12:30:40;6.55;;;3.45;;
60076;SDS011;45950;45.208;20.374;2023-05-07T12:33:07;4.78;;;2.70;;
60076;SDS011;45950;45.208;20.374;2023-05-07T12:35:36;4.00;;;2.50;;
60076;SDS011;45950;45.208;20.374;2023-05-07T12:38:06;3.30;;;2.22;;
60076;SDS011;45950;45.208;20.374;2023-05-07T12:40:38;4.25;;;3.10;;
60076;SDS011;45950;45.208;20.374;2023-05-07T12:43:05;3.88;;;2.58;;
60076;SDS011;45950;45.208;20.374;2023-05-07T12:45:31;3.80;;;2.85;;
60076;SDS011;45950;45.208;20.374;2023-05-07T12:48:02;3.55;;;2.67;;
60076;SDS011;45950;45.208;20.374;2023-05-07T12:50:31;5.20;;;2.92;;
60076;SDS011;45950;45.208;20.374;2023-05-07T12:52:58;3.67;;;2.78;;
60076;SDS011;45950;45.208;20.374;2023-05-07T12:55:24;4.18;;;2.42;;
60076;SDS011;45950;45.208;20.374;2023-05-07T12:57:52;3.55;;;2.60;;
60076;SDS011;45950;45.208;20.374;2023-05-07T13:00:31;4.18;;;2.38;;
60076;SDS011;45950;45.208;20.374;2023-05-07T13:02:58;3.15;;;2.38;;
60076;SDS011;45950;45.208;20.374;2023-05-07T13:05:25;3.80;;;2.30;;
60076;SDS011;45950;45.208;20.374;2023-05-07T13:07:52;3.28;;;2.53;;
60076;SDS011;45950;45.208;20.374;2023-05-07T13:10:19;6.10;;;2.60;;
60076;SDS011;45950;45.208;20.374;2023-05-07T13:12:45;3.80;;;2.20;;
60076;SDS011;45950;45.208;20.374;2023-05-07T13:15:13;3.88;;;2.13;;
60076;SDS011;45950;45.208;20.374;2023-05-07T13:17:40;3.90;;;2.50;;
60076;SDS011;45950;45.208;20.374;2023-05-07T13:20:07;4.80;;;2.50;;
60076;SDS011;45950;45.208;20.374;2023-05-07T13:22:33;4.68;;;2.50;;
60076;SDS011;45950;45.208;20.374;2023-05-07T13:25:00;2.95;;;2.25;;
60076;SDS011;45950;45.208;20.374;2023-05-07T13:27:27;4.35;;;2.60;;
60076;SDS011;45950;45.208;20.374;2023-05-07T13:29:55;6.97;;;2.40;;
60076;SDS011;45950;45.208;20.374;2023-05-07T13:32:23;3.28;;;2.38;;
60076;SDS011;45950;45.208;20.374;2023-05-07T13:34:50;3.20;;;2.45;;
60076;SDS011;45950;45.208;20.374;2023-05-07T13:37:16;3.22;;;2.15;;
60076;SDS011;45950;45.208;20.374;2023-05-07T13:39:43;9.82;;;2.92;;
60076;SDS011;45950;45.208;20.374;2023-05-07T13:42:10;4.47;;;2.30;;
60076;SDS011;45950;45.208;20.374;2023-05-07T13:44:37;3.53;;;2.28;;
60076;SDS011;45950;45.208;20.374;2023-05-07T13:47:04;3.50;;;2.03;;
60076;SDS011;45950;45.208;20.374;2023-05-07T13:49:32;4.60;;;2.30;;
60076;SDS011;45950;45.208;20.374;2023-05-07T13:51:58;3.08;;;2.00;;
60076;SDS011;45950;45.208;20.374;2023-05-07T13:54:25;3.65;;;2.28;;
60076;SDS011;45950;45.208;20.374;2023-05-07T13:56:52;8.00;;;7.03;;
60076;SDS011;45950;45.208;20.374;2023-05-07T13:59:18;4.47;;;1.95;;
60076;SDS011;45950;45.208;20.374;2023-05-07T14:01:45;2.30;;;1.83;;
60076;SDS011;45950;45.208;20.374;2023-05-07T14:04:12;3.70;;;2.13;;
60076;SDS011;45950;45.208;20.374;2023-05-07T14:06:40;4.07;;;2.03;;
60076;SDS011;45950;45.208;20.374;2023-05-07T14:09:07;3.03;;;2.35;;
60076;SDS011;45950;45.208;20.374;2023-05-07T14:11:33;4.13;;;2.20;;
60076;SDS011;45950;45.208;20.374;2023-05-07T14:14:00;4.60;;;2.30;;
60076;SDS011;45950;45.208;20.374;2023-05-07T14:16:31;3.67;;;2.00;;
60076;SDS011;45950;45.208;20.374;2023-05-07T14:18:58;3.33;;;2.35;;
60076;SDS011;45950;45.208;20.374;2023-05-07T14:21:25;2.58;;;1.90;;
60076;SDS011;45950;45.208;20.374;2023-05-07T14:23:53;3.92;;;2.08;;
60076;SDS011;45950;45.208;20.374;2023-05-07T14:26:21;2.40;;;1.80;;
60076;SDS011;45950;45.208;20.374;2023-05-07T14:28:48;3.55;;;2.35;;
60076;SDS011;45950;45.208;20.374;2023-05-07T14:31:15;2.65;;;2.10;;
60076;SDS011;45950;45.208;20.374;2023-05-07T14:33:41;4.07;;;2.55;;
60076;SDS011;45950;45.208;20.374;2023-05-07T14:36:08;3.78;;;2.13;;
60076;SDS011;45950;45.208;20.374;2023-05-07T14:38:34;2.90;;;1.92;;
60076;SDS011;45950;45.208;20.374;2023-05-07T14:41:02;3.90;;;2.28;;
60076;SDS011;45950;45.208;20.374;2023-05-07T14:43:29;4.38;;;2.20;;
60076;SDS011;45950;45.208;20.374;2023-05-07T14:45:56;2.85;;;2.13;;
60076;SDS011;45950;45.208;20.374;2023-05-07T14:48:22;3.13;;;2.22;;
60076;SDS011;45950;45.208;20.374;2023-05-07T14:50:49;3.20;;;2.13;;
60076;SDS011;45950;45.208;20.374;2023-05-07T14:53:15;4.63;;;2.40;;
60076;SDS011;45950;45.208;20.374;2023-05-07T14:55:42;2.53;;;2.00;;
60076;SDS011;45950;45.208;20.374;2023-05-07T14:58:10;2.78;;;2.40;;
60076;SDS011;45950;45.208;20.374;2023-05-07T15:00:37;5.85;;;2.70;;
60076;SDS011;45950;45.208;20.374;2023-05-07T15:03:08;3.83;;;2.58;;
60076;SDS011;45950;45.208;20.374;2023-05-07T15:05:34;3.33;;;1.95;;
60076;SDS011;45950;45.208;20.374;2023-05-07T15:08:01;3.38;;;2.22;;